Latest Weather Observations for Camden

IDN60901

Issued at 8:21 pm EST Thursday 28 July 2016 (issued every 10 minutes, with the page automatically refreshed every 10 minutes)

About weather observations | Map of Sydney area stations | Latest observations for Sydney area | Other Formats
Station Details ID: 068192 Name: CAMDEN AIRPORT AWS Lat: -34.04 Lon: 150.69 Height: 73.9 m
Data from the previous 72 hours. | See also: Recent months at Camden
Date/Time
EST
Temp
°C
App
Temp
°C
Dew
Point
°C
Rel
Hum
%
Delta-T
°C
Wind Press
QNH
hPa
Press
MSL
hPa
Rain since
9am
mm
Dir  Spd
km/h
Gust
km/h
Spd
kts
Gust
kts
28/08:00pm 9.6 7.7 2.9 63 2.9 SW 2 6 1 3 1023.1 1023.2 0.0
28/07:30pm 9.9 5.5 2.5 60 3.2 WSW 15 20 8 11 1022.9 1023.0 0.0
28/07:00pm 10.5 7.2 2.6 58 3.4 SW 9 17 5 9 1022.9 1023.0 0.0
28/06:30pm 11.3 7.3 2.9 56 3.7 WSW 13 24 7 13 1022.7 1022.8 0.0
28/06:00pm 11.9 7.5 2.6 53 4.0 WSW 15 24 8 13 1022.5 1022.6 0.0
28/05:30pm 12.9 5.6 2.7 50 4.5 SW 30 44 16 24 1021.8 1021.9 0.0
28/05:00pm 13.8 8.1 2.7 47 4.9 WSW 22 30 12 16 1021.7 1021.8 0.0
28/04:30pm 15.0 7.4 2.9 44 5.5 WSW 32 44 17 24 1021.1 1021.2 0.0
28/04:00pm 16.3 10.7 3.7 43 5.8 WSW 22 32 12 17 1020.9 1021.0 0.0
28/03:30pm 17.1 11.1 3.4 40 6.4 WSW 24 35 13 19 1020.8 1020.9 0.0
28/03:00pm 18.2 13.2 3.7 38 6.8 SW 19 35 10 19 1020.6 1020.7 0.0
28/02:30pm 18.8 13.8 3.4 36 7.2 W 19 26 10 14 1020.5 1020.6 0.0
28/02:00pm 18.9 13.6 3.1 35 7.4 W 20 30 11 16 1020.7 1020.8 0.0
28/01:30pm 18.5 15.4 3.6 37 7.0 NW 9 19 5 10 1021.1 1021.2 0.0
28/01:00pm 18.1 14.6 3.6 38 6.8 NW 11 20 6 11 1021.5 1021.6 0.0
28/12:30pm 17.4 14.2 3.0 38 6.6 W 9 17 5 9 1022.0 1022.1 0.0
28/12:00pm 17.0 14.2 3.0 39 6.4 W 7 13 4 7 1022.4 1022.5 0.0
28/11:30am 16.7 13.4 2.7 39 6.4 W 9 19 5 10 1023.2 1023.3 0.0
28/11:00am 15.6 11.9 2.4 41 5.9 W 11 17 6 9 1023.6 1023.7 0.0
28/10:30am 14.8 10.9 3.3 46 5.2 WSW 13 20 7 11 1024.1 1024.2 0.0
28/10:00am 14.0 10.2 3.8 50 4.6 WSW 13 17 7 9 1024.3 1024.4 0.0
28/09:30am 11.1 9.8 4.1 62 3.1 CALM 0 7 0 4 1024.3 1024.4 0.0
28/09:00am 9.6 8.6 5.4 75 1.9 CALM 0 0 0 0 1024.2 1024.3 0.0
28/08:30am 7.4 6.2 4.7 83 1.2 CALM 0 0 0 0 1024.4 1024.5 0.0
28/08:00am 5.2 3.9 4.0 92 0.5 CALM 0 0 0 0 1024.1 1024.2 0.0
28/07:30am 2.3 -0.2 1.4 94 0.3 S 4 9 2 5 1024.0 1024.1 0.0
28/07:00am 2.5 0.0 1.8 95 0.3 SSE 4 7 2 4 1023.6 1023.7 0.0
28/06:30am 3.2 1.6 2.6 96 0.2 CALM 0 0 0 0 1022.9 1023.0 0.0
28/06:00am 2.8 -0.6 1.8 93 0.4 SSW 9 13 5 7 1022.5 1022.6 0.0
28/05:30am 4.3 2.9 3.4 94 0.4 CALM 0 0 0 0 1022.4 1022.5 0.0
28/05:00am 3.7 0.7 2.2 90 0.6 SSW 7 11 4 6 1022.0 1022.1 0.0
28/04:30am 3.9 2.2 2.1 88 0.7 CALM 0 0 0 0 1021.4 1021.5 0.0
28/04:00am 4.7 1.9 2.1 83 1.0 NW 6 7 3 4 1020.9 1021.0 0.0
28/03:30am 7.4 5.7 3.8 78 1.5 SSE 2 6 1 3 1021.0 1021.1 0.0
28/03:00am 8.0 4.5 3.7 74 1.8 WSW 11 17 6 9 1021.0 1021.1 0.0
28/02:30am 6.6 4.7 2.9 77 1.5 NNW 2 9 1 5 1020.8 1020.9 0.0
28/02:00am 8.6 6.9 3.8 72 2.1 NNW 2 7 1 4 1021.3 1021.4 0.0
28/01:30am 6.9 4.3 3.2 77 1.6 NW 6 9 3 5 1021.3 1021.4 0.0
28/01:00am 8.3 5.7 3.4 71 2.1 N 6 7 3 4 1021.3 1021.4 0.0
28/12:30am 8.9 6.1 2.9 66 2.6 NW 7 11 4 6 1021.3 1021.4 0.0
28/12:00am 9.4 5.9 3.4 66 2.6 W 11 15 6 8 1021.0 1021.1 0.0
 
Date/Time
EST
Temp
°C
App
Temp
°C
Dew
Point
°C
Rel
Hum
%
Delta-T
°C
Wind Press
QNH
hPa
Press
MSL
hPa
Rain since
9am
mm
Dir  Spd
km/h
Gust
km/h
Spd
kts
Gust
kts
27/11:30pm 10.6 7.8 3.4 61 3.2 SSW 7 11 4 6 1020.8 1020.9 0.0
27/11:00pm 10.4 8.6 3.4 62 3.1 WSW 2 9 1 5 1020.2 1020.3 0.0
27/10:30pm 10.1 7.5 3.2 62 3.0 WNW 6 11 3 6 1020.1 1020.2 0.0
27/10:00pm 10.9 7.8 3.5 60 3.3 SW 9 13 5 7 1020.2 1020.3 0.0
27/09:30pm 11.2 8.4 3.3 58 3.5 WSW 7 11 4 6 1020.2 1020.3 0.0
27/09:00pm 11.5 7.6 3.5 58 3.5 W 13 19 7 10 1019.8 1019.9 0.0
27/08:30pm 11.4 7.9 3.4 58 3.5 WNW 11 17 6 9 1019.3 1019.4 0.0
27/08:00pm 11.8 8.4 3.8 58 3.6 W 11 17 6 9 1018.9 1019.0 0.0
27/07:30pm 11.9 8.1 3.9 58 3.6 W 13 17 7 9 1018.6 1018.7 0.0
27/07:00pm 12.4 8.9 3.6 55 3.9 WSW 11 20 6 11 1018.2 1018.3 0.0
27/06:30pm 12.6 8.0 3.6 54 4.0 WSW 17 26 9 14 1017.5 1017.6 0.0
27/06:00pm 12.8 8.9 3.5 53 4.2 WSW 13 20 7 11 1017.0 1017.1 0.0
27/05:30pm 13.4 8.2 3.5 51 4.5 W 20 26 11 14 1016.2 1016.3 0.0
27/05:00pm 14.2 8.6 3.4 48 4.9 WSW 22 32 12 17 1015.8 1015.9 0.0
27/04:30pm 15.2 8.0 3.0 44 5.5 WSW 30 43 16 23 1015.3 1015.5 0.0
27/04:00pm 16.0 10.3 3.1 42 5.9 W 22 41 12 22 1014.8 1014.9 0.0
27/03:30pm 16.4 10.4 3.5 42 6.0 WSW 24 32 13 17 1014.4 1014.5 0.0
27/03:00pm 16.6 9.1 3.3 41 6.1 W 32 50 17 27 1013.9 1014.0 0.0
27/02:36pm 17.0 9.9 3.7 41 6.2 W 30 48 16 26 1013.7 1013.8 0.0
27/02:30pm 16.7 9.0 3.4 41 6.1 W 33 44 18 24 1013.5 1013.6 0.0
27/02:10pm 17.0 9.5 3.3 40 6.3 WSW 32 50 17 27 1013.2 1013.3 0.0
27/02:00pm 16.8 9.5 2.4 38 6.5 WSW 30 44 16 24 1013.3 1013.4 0.0
27/01:42pm 16.8 9.0 2.8 39 6.4 WSW 33 52 18 28 1013.1 1013.2 0.0
27/01:30pm 16.9 8.4 2.9 39 6.4 W 37 50 20 27 1012.9 1013.0 0.0
27/01:10pm 17.2 9.5 2.4 37 6.7 W 32 56 17 30 1012.9 1013.0 0.0
27/01:00pm 17.4 9.8 3.0 38 6.6 WSW 32 43 17 23 1013.0 1013.1 0.0
27/12:30pm 17.7 10.1 2.8 37 6.9 W 32 50 17 27 1012.7 1012.8 0.0
27/12:08pm 16.8 8.4 1.7 36 6.7 WNW 35 57 19 31 1012.4 1012.5 0.0
27/12:00pm 16.9 9.6 2.5 38 6.5 W 30 44 16 24 1012.5 1012.6 0.0
27/11:30am 16.7 9.3 2.0 37 6.6 WSW 30 41 16 22 1012.6 1012.7 0.0
27/11:10am 15.6 7.7 1.0 37 6.4 W 32 56 17 30 1012.6 1012.7 0.0
27/11:00am 16.9 10.0 2.5 38 6.5 W 28 39 15 21 1012.5 1012.6 0.0
27/10:30am 16.7 11.4 3.1 40 6.2 WNW 20 37 11 20 1012.3 1012.4 0.0
27/10:00am 16.4 11.8 5.7 49 5.2 NW 19 24 10 13 1012.5 1012.6 0.0
27/09:30am 14.6 9.0 5.4 54 4.4 NNW 24 33 13 18 1012.1 1012.2 0.0
27/09:00am 14.4 9.6 5.5 55 4.2 NNW 20 33 11 18 1011.9 1012.0 0.0
27/08:30am 10.5 8.9 6.3 75 2.0 NNW 4 9 2 5 1012.2 1012.3 0.0
27/08:00am 6.1 4.0 3.9 86 0.9 WNW 4 7 2 4 1012.1 1012.2 0.0
27/07:30am 6.2 5.0 4.7 90 0.7 CALM 0 0 0 0 1011.7 1011.8 0.0
27/07:00am 4.4 2.7 3.8 96 0.3 SW 2 6 1 3 1011.4 1011.5 0.0
27/06:30am 3.9 2.0 2.9 93 0.4 NNE 2 6 1 3 1011.5 1011.6 0.0
27/06:00am 3.2 0.9 2.6 96 0.2 NNW 4 7 2 4 1011.4 1011.5 0.0
27/05:30am 3.1 -0.2 2.4 95 0.3 N 9 11 5 6 1011.5 1011.6 0.0
27/05:00am 3.8 1.8 2.5 91 0.5 NW 2 7 1 4 1011.8 1011.9 0.0
27/04:30am 3.7 0.9 3.4 98 0.1 SW 7 15 4 8 1012.3 1012.4 0.0
27/04:00am 2.5 0.0 1.6 94 0.3 N 4 9 2 5 1011.8 1011.9 0.0
27/03:30am 2.9 0.1 2.3 96 0.2 SSE 6 11 3 6 1012.0 1012.1 0.0
27/03:00am 3.1 0.2 2.4 95 0.3 NNW 7 11 4 6 1012.3 1012.4 0.0
27/02:30am 3.0 0.6 2.1 94 0.4 WNW 4 11 2 6 1012.2 1012.3 0.0
27/02:00am 3.4 0.5 2.4 93 0.4 NNE 7 11 4 6 1012.9 1013.0 0.0
27/01:30am 3.9 2.4 3.0 94 0.4 CALM 0 0 0 0 1013.7 1013.8 0.0
27/01:00am 4.4 2.5 2.8 89 0.7 WSW 2 6 1 3 1013.6 1013.7 0.0
27/12:30am 5.0 3.6 3.7 91 0.5 CALM 0 0 0 0 1013.8 1013.9 0.0
27/12:00am 4.7 2.9 3.4 91 0.5 WSW 2 6 1 3 1014.0 1014.1 0.0
 
Date/Time
EST
Temp
°C
App
Temp
°C
Dew
Point
°C
Rel
Hum
%
Delta-T
°C
Wind Press
QNH
hPa
Press
MSL
hPa
Rain since
9am
mm
Dir  Spd
km/h
Gust
km/h
Spd
kts
Gust
kts
26/11:30pm 5.2 3.7 3.2 87 0.8 CALM 0 0 0 0 1013.9 1014.0 0.0
26/11:00pm 5.2 3.8 3.4 88 0.7 CALM 0 0 0 0 1014.3 1014.4 0.0
26/10:30pm 5.3 3.7 2.7 83 1.1 CALM 0 0 0 0 1014.3 1014.4 0.0
26/10:00pm 5.8 4.4 3.6 86 0.9 CALM 0 0 0 0 1014.4 1014.5 0.0
26/09:30pm 6.3 5.0 4.1 86 0.9 CALM 0 0 0 0 1014.3 1014.4 0.0
26/09:00pm 6.6 5.1 3.0 78 1.5 CALM 0 0 0 0 1014.3 1014.4 0.0
26/08:30pm 8.4 6.9 3.1 69 2.3 CALM 0 0 0 0 1014.5 1014.6 0.0
26/08:00pm 8.2 6.7 2.9 69 2.2 CALM 0 0 0 0 1014.7 1014.8 0.0
26/07:30pm 8.9 6.3 3.1 67 2.5 NNW 6 9 3 5 1014.6 1014.7 0.0
26/07:00pm 9.2 6.9 3.0 65 2.7 NW 4 7 2 4 1014.4 1014.5 0.0
26/06:30pm 11.3 7.9 2.1 53 3.9 W 9 11 5 6 1014.2 1014.3 0.0
26/06:00pm 11.9 8.5 1.8 50 4.3 NW 9 13 5 7 1013.9 1014.0 0.0
26/05:30pm 13.3 8.7 1.6 45 5.1 NW 15 24 8 13 1013.8 1013.9 0.0
26/05:00pm 14.3 8.8 1.9 43 5.4 NW 20 30 11 16 1013.3 1013.4 0.0
26/04:30pm 16.0 10.4 1.3 37 6.5 NW 20 35 11 19 1012.9 1013.0 0.0
26/04:00pm 17.4 12.0 1.4 34 7.1 NW 19 26 10 14 1012.8 1012.9 0.0
26/03:30pm 18.2 14.0 1.7 33 7.5 WSW 13 19 7 10 1012.8 1012.9 0.0
26/03:00pm 18.6 15.1 3.3 36 7.2 NNW 11 17 6 9 1012.7 1012.8 0.0
26/02:30pm 18.2 14.9 2.5 35 7.2 NNW 9 15 5 8 1012.7 1012.8 0.0
26/02:00pm 18.1 15.2 2.8 36 7.1 N 7 13 4 7 1012.7 1012.8 0.0
26/01:30pm 17.8 15.5 2.9 37 6.9 NNE 4 9 2 5 1012.9 1013.0 0.0
26/01:00pm 17.3 14.0 2.5 37 6.7 ENE 9 17 5 9 1013.2 1013.3 0.0
26/12:30pm 17.3 14.6 3.6 40 6.4 NNE 7 15 4 8 1013.5 1013.6 0.0
26/12:00pm 16.7 13.1 2.7 39 6.4 NNE 11 15 6 8 1014.2 1014.3 0.0
26/11:30am 16.7 13.8 2.7 39 6.4 NNE 7 13 4 7 1014.3 1014.4 0.0
26/11:00am 16.2 12.3 3.3 42 5.9 ENE 13 20 7 11 1014.6 1014.7 0.0
26/10:30am 15.9 12.1 4.0 45 5.5 E 13 19 7 10 1014.7 1014.8 0.0
26/10:00am 15.2 11.5 4.3 48 5.1 ENE 13 17 7 9 1014.7 1014.8 0.0
26/09:30am 13.9 9.8 4.2 52 4.5 NE 15 19 8 10 1014.5 1014.6 0.0
26/09:00am 13.5 11.2 4.9 56 4.0 NE 6 11 3 6 1014.2 1014.3 0.0
26/08:30am 11.4 8.1 4.4 62 3.2 E 11 15 6 8 1013.9 1014.0 0.0
26/08:00am 8.9 6.0 4.7 75 1.9 ENE 9 13 5 7 1013.7 1013.8 0.0
26/07:30am 7.9 4.8 3.4 73 1.9 ENE 9 15 5 8 1013.4 1013.5 0.0
26/07:00am 5.4 1.3 2.2 80 1.3 NE 13 20 7 11 1012.9 1013.0 0.0
26/06:30am 4.8 2.4 2.0 82 1.1 N 4 11 2 6 1012.4 1012.5 0.0
26/06:00am 4.6 1.2 1.6 81 1.2 NNE 9 15 5 8 1012.0 1012.1 0.0
26/05:30am 2.7 -0.2 1.2 90 0.6 N 6 19 3 10 1012.1 1012.2 0.0
26/05:00am 2.0 -0.6 0.7 91 0.5 ESE 4 11 2 6 1011.7 1011.8 0.0
26/04:30am 2.5 -0.4 1.2 91 0.5 NNW 6 13 3 7 1011.3 1011.4 0.0
26/04:00am 2.5 -1.0 1.5 93 0.4 NNE 9 19 5 10 1011.4 1011.5 0.0
26/03:30am 1.5 -1.5 0.9 96 0.2 W 6 13 3 7 1011.7 1011.8 0.0
26/03:00am 1.5 -1.7 0.9 96 0.2 NNE 7 11 4 6 1011.6 1011.7 0.0
26/02:30am 1.2 -1.5 0.6 96 0.2 NNE 4 9 2 5 1012.0 1012.1 0.0
26/02:00am 1.6 -0.3 0.7 94 0.3 CALM 0 0 0 0 1012.1 1012.2 0.0
26/01:30am 2.3 0.5 1.1 92 0.5 CALM 0 4 0 2 1012.0 1012.1 0.0
26/01:00am 2.0 -1.0 1.0 93 0.4 S 6 9 3 5 1011.9 1012.0 0.0
26/12:30am 2.7 0.6 2.0 95 0.3 SE 2 7 1 4 1011.9 1012.0 0.0
26/12:00am 2.7 0.2 1.5 92 0.5 N 4 7 2 4 1011.9 1012.0 0.0
 
Date/Time
EST
Temp
°C
App
Temp
°C
Dew
Point
°C
Rel
Hum
%
Delta-T
°C
Wind Press
QNH
hPa
Press
MSL
hPa
Rain since
9am
mm
Dir  Spd
km/h
Gust
km/h
Spd
kts
Gust
kts
25/11:30pm 3.4 0.7 2.7 95 0.3 N 6 9 3 5 1012.4 1012.5 0.0
25/11:00pm 3.0 1.2 1.5 90 0.6 CALM 0 0 0 0 1012.8 1012.9 0.0
25/10:30pm 3.9 0.6 2.7 92 0.5 NNE 9 9 5 5 1013.0 1013.1 0.0
25/10:00pm 4.4 1.6 1.8 83 1.0 SSW 6 7 3 4 1013.3 1013.4 0.0
25/09:30pm 5.4 3.8 2.4 81 1.2 CALM 0 0 0 0 1013.0 1013.1 0.0
25/09:00pm 7.1 4.4 2.4 72 1.9 N 6 9 3 5 1013.0 1013.1 0.0
25/08:30pm 8.8 5.9 2.4 64 2.7 N 7 11 4 6 1013.0 1013.1 0.0

Latest Capital City Observations: Canberra | Sydney | Melbourne | Brisbane | Adelaide | Perth | Hobart | Darwin

Other Formats:

Comma delimited format used in spreadsheet applications
http://www.bom.gov.au/fwo/IDN60901/IDN60901.94755.axf

JavaScript Object Notation format (JSON) in row-major order
http://www.bom.gov.au/fwo/IDN60901/IDN60901.94755.json